Time;durP1;ratioP1;P1;durP2;ratioP2;P2;SDS_P1;SDS_P2;PMS_P1;PMS_P2;Temp;Humidity;BMP_temperature;BMP_pressure;BME280_temperature;BME280_humidity;BME280_pressure;Samples;Min_cycle;Max_cycle;Signal;HPM_P1;HPM_P2
2023/06/13 00:02:13;;;;;;;;;;;25.30;43.40;;;;;;10370556;28;94508;-69
2023/06/13 00:07:15;;;;;;;;;;;25.30;43.40;;;;;;10370611;28;94360;-70
2023/06/13 00:12:20;;;;;;;;;;;25.30;43.30;;;;;;10370101;28;94108;-69
2023/06/13 00:17:25;;;;;;;;;;;25.30;43.40;;;;;;10371534;28;94416;-70
2023/06/13 00:22:28;;;;;;;;;;;25.20;43.40;;;;;;10371092;28;93306;-70
2023/06/13 00:27:31;;;;;;;;;;;25.30;43.40;;;;;;10369494;28;94418;-70
2023/06/13 00:32:33;;;;;;;;;;;25.30;43.30;;;;;;10371016;28;93799;-66
2023/06/13 00:37:36;;;;;;;;;;;25.30;43.30;;;;;;10369340;28;94536;-65
2023/06/13 00:42:38;;;;;;;;;;;25.30;43.30;;;;;;10368075;28;94739;-65
2023/06/13 00:47:41;;;;;;;;;;;25.30;43.30;;;;;;10366450;28;96309;-65
2023/06/13 00:52:43;;;;;;;;;;;25.30;43.30;;;;;;10369292;28;94844;-65
2023/06/13 00:57:44;;;;;;;;;;;25.30;43.20;;;;;;10367659;28;94475;-65
2023/06/13 01:02:46;;;;;;;;;;;25.30;43.30;;;;;;10368452;28;93668;-65
2023/06/13 01:07:48;;;;;;;;;;;25.30;43.20;;;;;;10368841;28;93462;-66
2023/06/13 01:13:13;;;;;;;;;;;25.30;43.20;;;;;;10366566;28;93684;-66
2023/06/13 01:18:18;;;;;;;;;;;25.30;43.10;;;;;;10360344;28;93314;-65
2023/06/13 01:23:30;;;;;;;;;;;25.30;43.20;;;;;;10369610;28;92891;-65
2023/06/13 01:28:33;;;;;;;;;;;25.30;43.20;;;;;;10368675;28;93622;-64
2023/06/13 01:33:36;;;;;;;;;;;25.30;43.20;;;;;;10369121;28;93529;-66
2023/06/13 01:38:39;;;;;;;;;;;25.30;43.20;;;;;;10369553;28;95843;-64
2023/06/13 01:43:40;;;;;;;;;;;25.30;43.20;;;;;;10375161;28;93526;-66
2023/06/13 01:49:05;;;;;;;;;;;25.20;43.10;;;;;;10373787;28;94622;-65
2023/06/13 01:54:10;;;;;;;;;;;25.20;43.10;;;;;;10367152;28;93719;-65
2023/06/13 01:59:15;;;;;;;;;;;25.20;43.00;;;;;;10374378;28;94517;-65
2023/06/13 02:04:16;;;;;;;;;;;25.10;42.90;;;;;;10375994;28;94193;-65
2023/06/13 02:09:18;;;;;;;;;;;25.10;42.90;;;;;;10375804;28;93469;-65
2023/06/13 02:14:20;;;;;;;;;;;25.10;42.90;;;;;;10375175;28;92798;-65
2023/06/13 02:19:22;;;;;;;;;;;25.10;42.80;;;;;;10374772;28;94467;-65
2023/06/13 02:24:24;;;;;;;;;;;25.10;42.70;;;;;;10371698;28;93522;-65
2023/06/13 02:29:27;;;;;;;;;;;25.10;42.70;;;;;;10371913;28;95892;-70
2023/06/13 02:34:29;;;;;;;;;;;25.10;42.70;;;;;;10372143;28;93694;-69
2023/06/13 02:39:30;;;;;;;;;;;25.10;42.80;;;;;;10373819;28;94754;-70
2023/06/13 02:44:32;;;;;;;;;;;25.10;42.70;;;;;;10372924;28;92523;-69
2023/06/13 02:49:34;;;;;;;;;;;25.10;42.60;;;;;;10371859;28;94789;-68
2023/06/13 02:54:36;;;;;;;;;;;25.00;42.70;;;;;;10373032;28;94500;-68
2023/06/13 02:59:38;;;;;;;;;;;25.10;42.60;;;;;;10372468;28;94030;-69
2023/06/13 03:04:40;;;;;;;;;;;25.00;42.70;;;;;;10373901;28;92761;-69
2023/06/13 03:09:42;;;;;;;;;;;25.10;42.60;;;;;;10373346;28;93994;-68
2023/06/13 03:14:45;;;;;;;;;;;25.00;42.40;;;;;;10372970;28;94599;-65
2023/06/13 03:19:47;;;;;;;;;;;25.00;42.50;;;;;;10368461;28;96856;-65
2023/06/13 03:24:50;;;;;;;;;;;25.10;42.60;;;;;;10371486;28;93505;-66
2023/06/13 03:29:52;;;;;;;;;;;25.10;42.40;;;;;;10370368;28;94404;-65
2023/06/13 03:34:54;;;;;;;;;;;25.10;42.40;;;;;;10371913;28;93545;-65
2023/06/13 03:39:56;;;;;;;;;;;25.00;42.30;;;;;;10371603;28;93504;-65
2023/06/13 03:44:59;;;;;;;;;;;25.00;42.30;;;;;;10372886;28;96329;-65
2023/06/13 03:50:02;;;;;;;;;;;25.00;42.30;;;;;;10369529;28;94719;-65
2023/06/13 03:55:04;;;;;;;;;;;25.00;42.20;;;;;;10371583;28;92963;-66
2023/06/13 04:00:13;;;;;;;;;;;25.00;42.10;;;;;;10369187;28;93531;-65
2023/06/13 04:05:16;;;;;;;;;;;25.00;42.10;;;;;;10370446;28;93368;-65
2023/06/13 04:10:18;;;;;;;;;;;25.00;42.20;;;;;;10368906;28;97119;-65
2023/06/13 04:15:21;;;;;;;;;;;25.00;42.10;;;;;;10370184;28;93465;-68
2023/06/13 04:20:24;;;;;;;;;;;25.00;42.20;;;;;;10371655;28;94588;-68
2023/06/13 04:25:26;;;;;;;;;;;24.90;42.20;;;;;;10370378;28;93979;-68
2023/06/13 04:30:28;;;;;;;;;;;24.90;42.20;;;;;;10369808;28;93644;-68
2023/06/13 04:35:37;;;;;;;;;;;24.90;42.30;;;;;;10369314;28;94367;-68
2023/06/13 04:40:39;;;;;;;;;;;24.90;42.30;;;;;;10370237;28;94404;-69
2023/06/13 04:51:04;;;;;;;;;;;24.90;42.40;;;;;;10436266;22;95032;-71
2023/06/13 04:56:06;;;;;;;;;;;24.80;42.40;;;;;;10245885;28;93506;-71
2023/06/13 05:01:10;;;;;;;;;;;24.80;42.50;;;;;;10243629;28;96283;-72
2023/06/13 05:06:12;;;;;;;;;;;24.80;42.80;;;;;;10245915;28;93391;-72
2023/06/13 05:11:14;;;;;;;;;;;24.80;42.80;;;;;;10248749;28;92850;-71
2023/06/13 05:16:17;;;;;;;;;;;24.80;42.90;;;;;;10218974;28;92882;-70
2023/06/13 05:21:19;;;;;;;;;;;24.80;43.30;;;;;;10253121;28;94813;-71
2023/06/13 05:26:21;;;;;;;;;;;24.80;43.90;;;;;;10253109;28;93494;-71
2023/06/13 05:31:23;;;;;;;;;;;24.80;44.40;;;;;;10257765;28;94567;-71
2023/06/13 05:36:25;;;;;;;;;;;24.70;44.40;;;;;;10276448;28;92815;-71
2023/06/13 05:41:27;;;;;;;;;;;24.70;44.90;;;;;;10291989;28;94538;-70
2023/06/13 05:46:28;;;;;;;;;;;24.70;43.60;;;;;;10292387;28;93682;-70
2023/06/13 05:51:31;;;;;;;;;;;24.60;43.80;;;;;;10288630;28;96426;-68
2023/06/13 05:56:35;;;;;;;;;;;24.60;42.70;;;;;;10291746;28;94511;-63
2023/06/13 06:01:37;;;;;;;;;;;24.60;42.60;;;;;;10292228;28;94600;-71
2023/06/13 06:06:39;;;;;;;;;;;24.60;42.80;;;;;;10291304;28;92849;-70
2023/06/13 06:11:41;;;;;;;;;;;24.60;42.90;;;;;;10292708;28;94314;-69
2023/06/13 06:16:42;;;;;;;;;;;24.60;42.90;;;;;;10291063;28;92524;-69
2023/06/13 06:21:44;;;;;;;;;;;24.60;42.70;;;;;;10252718;28;94467;-71
2023/06/13 06:26:46;;;;;;;;;;;24.70;42.90;;;;;;10203341;28;92895;-69
2023/06/13 06:31:48;;;;;;;;;;;24.70;43.20;;;;;;10211259;28;93525;-68
2023/06/13 06:36:50;;;;;;;;;;;24.80;44.10;;;;;;10193198;28;94370;-70
2023/06/13 06:41:51;;;;;;;;;;;24.80;45.40;;;;;;10207501;28;95929;-70
2023/06/13 06:46:53;;;;;;;;;;;24.90;45.20;;;;;;10210195;28;93567;-69
2023/06/13 06:51:55;;;;;;;;;;;24.90;44.90;;;;;;10192902;28;94157;-70
2023/06/13 06:56:57;;;;;;;;;;;25.00;45.30;;;;;;10221792;28;94427;-69
2023/06/13 07:01:59;;;;;;;;;;;25.10;45.40;;;;;;10249904;28;93605;-69
2023/06/13 07:07:01;;;;;;;;;;;25.10;45.10;;;;;;10249978;28;93496;-70
2023/06/13 07:12:03;;;;;;;;;;;25.20;45.10;;;;;;10250218;28;94690;-69
2023/06/13 07:17:04;;;;;;;;;;;25.30;45.20;;;;;;10251020;28;93839;-70
2023/06/13 07:22:06;;;;;;;;;;;25.30;45.10;;;;;;10232293;28;93242;-70
2023/06/13 07:27:08;;;;;;;;;;;25.30;45.00;;;;;;10249781;28;94499;-70
2023/06/13 07:32:10;;;;;;;;;;;25.30;44.90;;;;;;10226654;28;96263;-70
2023/06/13 07:37:12;;;;;;;;;;;25.30;45.10;;;;;;10244226;28;93417;-70
2023/06/13 07:42:13;;;;;;;;;;;25.30;45.20;;;;;;10245867;28;93592;-71
2023/06/13 07:47:15;;;;;;;;;;;25.30;45.10;;;;;;10247090;28;94718;-69
2023/06/13 07:52:17;;;;;;;;;;;25.20;45.20;;;;;;10248765;28;94449;-70
2023/06/13 07:57:19;;;;;;;;;;;25.20;45.20;;;;;;10247822;28;94438;-70
2023/06/13 08:02:41;;;;;;;;;;;25.20;45.30;;;;;;10248086;28;94850;-71
2023/06/13 08:07:42;;;;;;;;;;;25.20;45.40;;;;;;10248490;28;92718;-71
2023/06/13 08:12:45;;;;;;;;;;;25.20;45.30;;;;;;10247963;28;93629;-71
2023/06/13 08:17:47;;;;;;;;;;;25.20;45.20;;;;;;10230893;28;93543;-71
2023/06/13 08:22:50;;;;;;;;;;;25.20;45.40;;;;;;10245869;28;97091;-71
2023/06/13 08:27:52;;;;;;;;;;;25.20;45.40;;;;;;10248019;28;94432;-70
2023/06/13 08:32:54;;;;;;;;;;;25.10;45.40;;;;;;10246377;28;93656;-70
2023/06/13 08:37:56;;;;;;;;;;;25.10;45.60;;;;;;10246435;28;93461;-70
2023/06/13 08:43:00;;;;;;;;;;;25.10;45.50;;;;;;10229127;28;94595;-70
2023/06/13 08:48:02;;;;;;;;;;;25.20;45.80;;;;;;10246981;28;93560;-70
2023/06/13 08:53:05;;;;;;;;;;;25.30;45.40;;;;;;10246794;28;93327;-70
2023/06/13 08:58:09;;;;;;;;;;;25.30;45.30;;;;;;10248531;28;93726;-70
2023/06/13 09:03:14;;;;;;;;;;;25.30;45.40;;;;;;10245632;28;93949;-70
2023/06/13 09:08:16;;;;;;;;;;;25.30;45.60;;;;;;10246528;28;94452;-69
2023/06/13 09:13:32;;;;;;;;;;;25.20;45.70;;;;;;10228261;28;97116;-69
2023/06/13 09:18:38;;;;;;;;;;;25.20;45.70;;;;;;10245641;28;93530;-69
2023/06/13 09:23:40;;;;;;;;;;;25.20;45.70;;;;;;10246335;28;93454;-69
2023/06/13 09:28:43;;;;;;;;;;;25.10;45.70;;;;;;10246274;28;94507;-70
2023/06/13 09:33:45;;;;;;;;;;;25.10;45.80;;;;;;10245435;28;94640;-69
2023/06/13 09:38:48;;;;;;;;;;;25.10;45.90;;;;;;10245219;28;93641;-70
2023/06/13 09:43:50;;;;;;;;;;;25.10;45.90;;;;;;10245065;28;94435;-69
2023/06/13 09:48:52;;;;;;;;;;;25.10;45.90;;;;;;10227749;28;93234;-69
2023/06/13 09:53:54;;;;;;;;;;;25.10;45.90;;;;;;10245049;28;93568;-70
2023/06/13 09:58:56;;;;;;;;;;;25.10;45.90;;;;;;10247579;28;94630;-69
2023/06/13 10:03:57;;;;;;;;;;;25.10;45.80;;;;;;10249684;28;96956;-69
2023/06/13 10:08:59;;;;;;;;;;;25.20;45.90;;;;;;10252350;28;94550;-70
2023/06/13 10:14:07;;;;;;;;;;;25.20;45.70;;;;;;10234465;28;94491;-69
2023/06/13 10:19:09;;;;;;;;;;;25.30;45.70;;;;;;10251885;28;93407;-69
2023/06/13 10:24:12;;;;;;;;;;;25.30;45.60;;;;;;10251144;28;93130;-70
2023/06/13 10:29:19;;;;;;;;;;;25.30;45.50;;;;;;10251333;28;93459;-69
2023/06/13 10:34:39;;;;;;;;;;;25.40;45.50;;;;;;10252076;28;95159;-70
2023/06/13 10:39:51;;;;;;;;;;;25.50;45.40;;;;;;10252516;28;93843;-69
2023/06/13 10:44:59;;;;;;;;;;;25.50;45.40;;;;;;10233346;28;94555;-70
2023/06/13 10:50:02;;;;;;;;;;;25.50;45.30;;;;;;10232201;28;93433;-70
2023/06/13 10:55:04;;;;;;;;;;;25.50;45.40;;;;;;10248162;28;95864;-70
2023/06/13 11:00:11;;;;;;;;;;;25.50;45.40;;;;;;10250136;28;94021;-69
2023/06/13 11:05:13;;;;;;;;;;;25.50;45.40;;;;;;10249660;28;93824;-69
2023/06/13 11:10:16;;;;;;;;;;;25.60;45.30;;;;;;10249277;28;93675;-70
2023/06/13 11:15:22;;;;;;;;;;;25.60;45.20;;;;;;10232006;28;93316;-70
2023/06/13 11:20:24;;;;;;;;;;;25.60;45.40;;;;;;10248494;28;92867;-70
2023/06/13 11:25:26;;;;;;;;;;;25.50;45.20;;;;;;10232638;28;94454;-70
2023/06/13 11:30:28;;;;;;;;;;;25.50;45.20;;;;;;10249814;28;93052;-70
2023/06/13 11:35:31;;;;;;;;;;;25.60;45.30;;;;;;10248574;28;94614;-70
2023/06/13 11:40:39;;;;;;;;;;;25.60;45.40;;;;;;10231048;28;93892;-70
2023/06/13 11:45:41;;;;;;;;;;;25.60;45.10;;;;;;10245991;28;95941;-69
2023/06/13 11:50:44;;;;;;;;;;;25.50;45.00;;;;;;10248383;28;92827;-70
2023/06/13 11:55:46;;;;;;;;;;;25.60;45.00;;;;;;10230750;28;93654;-70
2023/06/13 12:00:49;;;;;;;;;;;25.50;44.90;;;;;;10231535;28;93617;-69
2023/06/13 12:05:52;;;;;;;;;;;25.50;44.80;;;;;;10230365;28;93784;-70
2023/06/13 12:10:56;;;;;;;;;;;25.60;44.80;;;;;;10247587;28;93758;-69
2023/06/13 12:15:58;;;;;;;;;;;25.50;44.70;;;;;;10248417;28;94692;-70
2023/06/13 12:20:59;;;;;;;;;;;25.50;44.80;;;;;;10248296;28;94146;-69
2023/06/13 12:26:01;;;;;;;;;;;25.50;44.70;;;;;;10247335;28;93834;-70
2023/06/13 12:31:07;;;;;;;;;;;25.50;44.70;;;;;;10246922;28;93589;-70
2023/06/13 12:36:12;;;;;;;;;;;25.50;44.70;;;;;;10244456;28;95919;-70
2023/06/13 12:41:14;;;;;;;;;;;25.50;44.70;;;;;;10246359;28;93658;-70
2023/06/13 12:46:16;;;;;;;;;;;25.50;44.70;;;;;;10247225;28;94528;-70
2023/06/13 12:51:28;;;;;;;;;;;25.40;44.80;;;;;;10197375;28;95387;-70
2023/06/13 12:56:30;;;;;;;;;;;25.50;44.80;;;;;;10207536;28;93542;-69
2023/06/13 13:01:31;;;;;;;;;;;25.50;44.60;;;;;;10206441;28;95002;-70
2023/06/13 13:06:33;;;;;;;;;;;25.50;44.70;;;;;;10205893;28;94425;-70
2023/06/13 13:11:35;;;;;;;;;;;25.50;44.80;;;;;;10189680;28;93929;-70
2023/06/13 13:16:37;;;;;;;;;;;25.50;44.60;;;;;;10206010;28;93466;-70
2023/06/13 13:21:40;;;;;;;;;;;25.50;44.60;;;;;;10205721;28;94413;-69
2023/06/13 13:26:43;;;;;;;;;;;25.50;44.50;;;;;;10203178;28;96092;-70
2023/06/13 13:31:45;;;;;;;;;;;25.50;44.40;;;;;;10206930;28;92831;-70
2023/06/13 13:36:47;;;;;;;;;;;25.50;44.30;;;;;;10212616;28;93466;-69
2023/06/13 13:41:49;;;;;;;;;;;25.50;44.10;;;;;;10213722;28;94730;-70
2023/06/13 13:46:51;;;;;;;;;;;25.50;44.40;;;;;;10194529;28;94616;-70
2023/06/13 13:51:53;;;;;;;;;;;25.50;44.50;;;;;;10248007;28;94078;-70
2023/06/13 13:56:54;;;;;;;;;;;25.50;44.60;;;;;;10252891;28;94968;-70
2023/06/13 14:01:59;;;;;;;;;;;25.50;44.80;;;;;;10252462;28;92018;-69
2023/06/13 14:07:01;;;;;;;;;;;25.50;44.90;;;;;;10234532;28;94548;-70
2023/06/13 14:12:03;;;;;;;;;;;25.50;44.80;;;;;;10251387;28;93546;-70
2023/06/13 14:17:05;;;;;;;;;;;25.50;44.80;;;;;;10231556;28;96240;-69
2023/06/13 14:22:07;;;;;;;;;;;25.50;44.60;;;;;;10251052;28;93471;-70
2023/06/13 14:27:10;;;;;;;;;;;25.50;44.50;;;;;;10251935;28;93494;-70
2023/06/13 14:32:11;;;;;;;;;;;25.50;44.50;;;;;;10251398;28;95318;-69
2023/06/13 14:37:13;;;;;;;;;;;25.50;44.40;;;;;;10251138;28;94518;-70
2023/06/13 14:42:15;;;;;;;;;;;25.50;44.40;;;;;;10250618;28;94439;-70
2023/06/13 14:47:17;;;;;;;;;;;25.50;44.40;;;;;;10232167;28;95081;-70
2023/06/13 14:52:18;;;;;;;;;;;25.50;44.60;;;;;;10250670;28;92636;-70
2023/06/13 14:57:20;;;;;;;;;;;25.50;44.50;;;;;;10232513;28;93563;-69
2023/06/13 15:02:22;;;;;;;;;;;25.50;44.50;;;;;;10250771;28;94602;-69
2023/06/13 15:07:24;;;;;;;;;;;25.50;44.20;;;;;;10248359;28;95845;-70
2023/06/13 15:12:26;;;;;;;;;;;25.50;44.10;;;;;;10250592;28;94473;-70
2023/06/13 15:17:28;;;;;;;;;;;25.50;44.20;;;;;;10249482;28;93371;-71
2023/06/13 15:22:30;;;;;;;;;;;25.50;44.10;;;;;;10249703;28;93948;-70
2023/06/13 15:27:32;;;;;;;;;;;25.50;44.10;;;;;;10232175;28;93668;-70
2023/06/13 15:32:34;;;;;;;;;;;25.50;44.20;;;;;;10249412;28;93941;-70
2023/06/13 15:37:35;;;;;;;;;;;25.50;44.20;;;;;;10249483;28;94709;-70
2023/06/13 15:42:37;;;;;;;;;;;25.50;44.70;;;;;;10232471;28;92745;-70
2023/06/13 15:47:39;;;;;;;;;;;25.50;45.20;;;;;;10248441;28;93508;-69
2023/06/13 15:52:41;;;;;;;;;;;25.50;45.10;;;;;;10248821;28;92916;-69
2023/06/13 15:57:42;;;;;;;;;;;25.60;46.50;;;;;;10246333;28;95937;-70
2023/06/13 16:02:45;;;;;;;;;;;25.70;48.80;;;;;;10248789;28;94487;-70
2023/06/13 16:07:47;;;;;;;;;;;25.90;50.00;;;;;;10230209;28;93491;-68
2023/06/13 16:12:48;;;;;;;;;;;26.00;49.50;;;;;;10246987;28;94581;-69
2023/06/13 16:17:52;;;;;;;;;;;26.10;47.70;;;;;;10247691;28;93745;-69
2023/06/13 16:22:54;;;;;;;;;;;26.00;47.70;;;;;;10247332;28;93576;-69
2023/06/13 16:27:56;;;;;;;;;;;26.00;47.60;;;;;;10247694;28;93518;-70
2023/06/13 16:32:58;;;;;;;;;;;25.90;47.30;;;;;;10248149;28;94051;-69
2023/06/13 16:37:59;;;;;;;;;;;25.90;47.10;;;;;;10247315;28;93514;-69
2023/06/13 16:43:01;;;;;;;;;;;25.90;48.20;;;;;;10247413;28;95822;-69
2023/06/13 16:48:03;;;;;;;;;;;25.90;46.90;;;;;;10243526;28;95883;-69
2023/06/13 16:53:05;;;;;;;;;;;25.90;46.80;;;;;;10247833;28;93422;-70
2023/06/13 16:58:06;;;;;;;;;;;25.90;46.60;;;;;;10247120;28;94320;-69
2023/06/13 17:03:09;;;;;;;;;;;25.90;46.70;;;;;;10229165;28;93583;-69
2023/06/13 17:08:10;;;;;;;;;;;25.90;46.70;;;;;;10248844;28;93398;-69
2023/06/13 17:13:12;;;;;;;;;;;25.90;46.50;;;;;;10253620;28;94480;-69
2023/06/13 17:18:15;;;;;;;;;;;25.90;46.60;;;;;;10254249;28;93796;-69
2023/06/13 17:23:16;;;;;;;;;;;25.90;46.60;;;;;;10254605;28;93718;-70
2023/06/13 17:28:18;;;;;;;;;;;26.00;46.50;;;;;;10253306;28;94507;-70
2023/06/13 17:33:20;;;;;;;;;;;26.00;46.60;;;;;;10252420;28;93565;-70
2023/06/13 17:38:32;;;;;;;;;;;26.00;46.50;;;;;;10250264;28;95879;-70
2023/06/13 17:43:34;;;;;;;;;;;26.00;46.40;;;;;;10253523;28;93696;-70
2023/06/13 17:48:36;;;;;;;;;;;26.10;46.30;;;;;;10251158;28;94635;-70
2023/06/13 17:53:38;;;;;;;;;;;26.10;46.30;;;;;;10252378;28;94575;-70
2023/06/13 17:58:41;;;;;;;;;;;26.10;46.10;;;;;;10234599;28;94597;-70
2023/06/13 18:03:43;;;;;;;;;;;26.20;46.10;;;;;;10251403;28;94600;-71
2023/06/13 18:08:44;;;;;;;;;;;26.20;46.00;;;;;;10252609;28;94019;-69
2023/06/13 18:13:46;;;;;;;;;;;26.30;46.00;;;;;;10253545;28;93831;-70
2023/06/13 18:18:48;;;;;;;;;;;26.30;45.90;;;;;;10250100;28;93466;-70
2023/06/13 18:23:50;;;;;;;;;;;26.30;45.80;;;;;;10251203;28;94609;-70
2023/06/13 18:28:52;;;;;;;;;;;26.30;45.70;;;;;;10248659;28;95839;-68
2023/06/13 18:33:53;;;;;;;;;;;26.30;45.70;;;;;;10233446;28;94002;-68
2023/06/13 18:38:55;;;;;;;;;;;26.30;45.70;;;;;;10250543;28;94607;-69
2023/06/13 18:44:03;;;;;;;;;;;26.30;45.80;;;;;;10250977;28;94083;-70
2023/06/13 18:49:05;;;;;;;;;;;26.20;45.80;;;;;;10250416;28;93645;-69
2023/06/13 18:54:06;;;;;;;;;;;26.20;46.00;;;;;;10250314;28;94566;-68
2023/06/13 18:59:08;;;;;;;;;;;26.10;46.10;;;;;;10250199;28;93353;-69
2023/06/13 19:04:10;;;;;;;;;;;26.10;47.20;;;;;;10250374;28;93046;-70
2023/06/13 19:09:15;;;;;;;;;;;26.00;46.10;;;;;;10249785;28;94366;-69
2023/06/13 19:14:17;;;;;;;;;;;26.00;46.30;;;;;;10231369;28;94516;-70
2023/06/13 19:19:19;;;;;;;;;;;25.90;46.20;;;;;;10246831;28;96367;-69
2023/06/13 19:24:21;;;;;;;;;;;25.90;46.20;;;;;;10249021;28;93601;-70
2023/06/13 19:29:23;;;;;;;;;;;25.90;46.30;;;;;;10249401;28;94703;-70
2023/06/13 19:34:25;;;;;;;;;;;25.90;46.30;;;;;;10248225;28;93039;-69
2023/06/13 19:39:27;;;;;;;;;;;25.90;46.20;;;;;;10231515;28;93576;-70
2023/06/13 19:44:29;;;;;;;;;;;25.90;46.10;;;;;;10248553;28;93601;-69
2023/06/13 19:49:33;;;;;;;;;;;25.90;46.10;;;;;;10248397;28;113942;-70
2023/06/13 19:54:35;;;;;;;;;;;25.90;46.10;;;;;;10249556;28;92523;-70
2023/06/13 19:59:39;;;;;;;;;;;25.80;45.80;;;;;;10247863;28;93877;-69
2023/06/13 20:04:44;;;;;;;;;;;25.80;45.80;;;;;;10248547;28;94075;-69
2023/06/13 20:09:46;;;;;;;;;;;25.80;45.80;;;;;;10229411;28;96878;-70
2023/06/13 20:14:50;;;;;;;;;;;25.80;45.50;;;;;;10247582;28;93513;-70
2023/06/13 20:19:52;;;;;;;;;;;25.80;45.40;;;;;;10248252;28;93639;-70
2023/06/13 20:24:54;;;;;;;;;;;25.80;45.30;;;;;;10243507;28;93632;-69
2023/06/13 20:29:56;;;;;;;;;;;25.80;45.10;;;;;;10253241;28;94505;-70
2023/06/13 20:34:58;;;;;;;;;;;25.80;45.10;;;;;;10287135;28;94494;-70
2023/06/13 20:40:04;;;;;;;;;;;25.80;45.00;;;;;;10286620;28;93709;-70
2023/06/13 20:45:09;;;;;;;;;;;25.80;45.10;;;;;;10287945;28;93685;-69
2023/06/13 20:50:11;;;;;;;;;;;25.80;45.00;;;;;;10252618;28;93641;-69
2023/06/13 20:55:13;;;;;;;;;;;25.80;44.90;;;;;;10241773;28;93546;-69
2023/06/13 21:00:22;;;;;;;;;;;25.80;44.90;;;;;;10203713;28;97100;-69
2023/06/13 21:05:25;;;;;;;;;;;25.80;44.70;;;;;;10189062;28;94535;-69
2023/06/13 21:10:30;;;;;;;;;;;25.80;44.40;;;;;;10207096;28;94490;-69
2023/06/13 21:15:32;;;;;;;;;;;25.70;42.10;;;;;;10205477;28;93709;-70
2023/06/13 21:20:34;;;;;;;;;;;25.60;41.40;;;;;;10206077;28;93593;-70
2023/06/13 21:25:36;;;;;;;;;;;25.50;41.80;;;;;;10205466;28;94663;-70
2023/06/13 21:30:38;;;;;;;;;;;25.40;42.10;;;;;;10205296;28;93382;-70
2023/06/13 21:35:40;;;;;;;;;;;25.30;42.50;;;;;;10188191;28;93815;-69
2023/06/13 21:40:42;;;;;;;;;;;25.20;42.80;;;;;;10204909;28;94556;-69
2023/06/13 21:45:44;;;;;;;;;;;25.20;43.20;;;;;;10204972;28;94333;-68
2023/06/13 21:50:47;;;;;;;;;;;25.20;43.30;;;;;;10170669;28;96067;-69
2023/06/13 21:55:49;;;;;;;;;;;25.10;43.50;;;;;;10210497;28;94314;-69
2023/06/13 22:00:51;;;;;;;;;;;25.10;43.80;;;;;;10211367;28;94580;-69
2023/06/13 22:05:56;;;;;;;;;;;25.00;44.00;;;;;;10211402;28;94424;-68
2023/06/13 22:10:58;;;;;;;;;;;25.00;44.20;;;;;;10211120;28;92999;-68
2023/06/13 22:16:00;;;;;;;;;;;24.90;44.40;;;;;;10210546;28;93697;-69
2023/06/13 22:21:03;;;;;;;;;;;24.90;44.50;;;;;;10210649;28;94429;-68
2023/06/13 22:26:05;;;;;;;;;;;24.90;44.50;;;;;;10211821;28;92659;-69
2023/06/13 22:31:07;;;;;;;;;;;24.90;44.50;;;;;;10210682;28;94485;-68
2023/06/13 22:36:08;;;;;;;;;;;24.90;44.30;;;;;;10209582;28;93543;-70
2023/06/13 22:41:10;;;;;;;;;;;24.90;44.20;;;;;;10208477;28;94904;-69
2023/06/13 22:46:12;;;;;;;;;;;24.90;43.90;;;;;;10209821;28;93878;-69
2023/06/13 22:51:16;;;;;;;;;;;24.80;43.80;;;;;;10209631;28;94461;-70
2023/06/13 22:56:18;;;;;;;;;;;24.90;43.60;;;;;;10193342;28;93579;-69
2023/06/13 23:01:20;;;;;;;;;;;24.80;43.40;;;;;;10209973;28;93500;-69
2023/06/13 23:06:22;;;;;;;;;;;24.90;43.50;;;;;;10208909;28;93475;-69
2023/06/13 23:11:24;;;;;;;;;;;24.80;43.30;;;;;;10191643;28;93414;-69
2023/06/13 23:16:26;;;;;;;;;;;24.80;43.10;;;;;;10209878;28;92931;-69
2023/06/13 23:21:27;;;;;;;;;;;24.80;42.60;;;;;;10191719;28;93766;-69
2023/06/13 23:26:30;;;;;;;;;;;24.70;42.60;;;;;;10209777;28;94880;-69
2023/06/13 23:31:34;;;;;;;;;;;24.80;42.60;;;;;;10189669;28;95918;-69
2023/06/13 23:36:42;;;;;;;;;;;24.70;41.80;;;;;;10192206;28;94543;-70
2023/06/13 23:41:43;;;;;;;;;;;24.70;42.10;;;;;;10208208;28;92762;-69
2023/06/13 23:46:45;;;;;;;;;;;24.60;41.70;;;;;;10209725;28;94512;-70
2023/06/13 23:51:50;;;;;;;;;;;24.60;41.40;;;;;;10209043;28;93912;-69
2023/06/13 23:56:52;;;;;;;;;;;24.50;41.10;;;;;;10191569;28;94798;-71
